デンパサール の空港の天気 - METARとTAF

デンパサール国際空港 ( WADD / DPS ) - インドネシア バリ島デンパサール
飛行場実況気象(Metar)
観測時間05/28 03:00 WITA (05/27 19:00 UTC)
風向・風速東 4m/s
視程10km以上
天気現象
少しの雲 雲底高度 460m
全天の4割程度の雲 雲底高度 460m
気温27℃
湿度94%
気圧1009hPa
METARWADD 271900Z 10008KT 9999 FEW015CB SCT015 27/26 Q1009 RMK CB TO NW
過去の天気等 Google飛行場航空写真 Wunderground天気予報

過去48時間のMETAR

飛行場予報(TAF)
発表時間: 5/28 01:00 WITA (5/27 17:00 UTC)
予報対象時間: 28日2時 WITA ~ 29日2時 WITA
風向・風速東南東 6m/s
視程10km以上
全天の4割程度の雲 雲底高度 520m
28日8時 WITA ~ 28日10時 WITA に徐々に
少しの積乱雲 雲底高度 490m
全天の4割程度の雲 雲底高度 520m
28日16時 WITA ~ 28日20時 WITA に一時的に
視程5,000m
天気現象
少しの積乱雲 雲底高度 460m
全天の8割程度の雲 雲底高度 490m
TAF WADD 271700Z 2718/2818 11012KT 9999 SCT017
BECMG 2800/2802 FEW016CB SCT017
TEMPO 2808/2812 5000 RA FEW015CB BKN016